Latest Weather Observations for Wagga Wagga

IDN60801

Issued at 8:03 am EST Friday 29 July 2016 (issued every 30 minutes, with the page automatically refreshed every 10 minutes)

About weather observations | Map of weather stations | Latest weather observations for NSW | Other Formats
Station Details ID: 072150 Name: WAGGA WAGGA AMO Lat: -35.16 Lon: 147.46 Height: 212.0 m
Data from the previous 72 hours. | See also: Recent months at Wagga Wagga
Date/Time
EST
Temp
°C
App
Temp
°C
Dew
Point
°C
Rel
Hum
%
Delta-T
°C
Wind Press
QNH
hPa
Press
MSL
hPa
Rain since
9am
mm
Dir  Spd
km/h
Gust
km/h
Spd
kts
Gust
kts
29/08:00am 7.4 5.0 7.2 99 0.1 WNW 9 11 5 6 1025.7 1026.2 -
29/07:56am 7.4 5.0 7.0 97 0.2 WNW 9 11 5 6 1025.7 1026.2 0.8
29/07:30am 7.1 5.1 6.9 99 0.1 WNW 7 9 4 5 1025.5 1026.0 0.8
29/07:23am 7.0 5.1 6.6 97 0.2 NW 6 7 3 4 1025.5 1026.0 0.8
29/07:10am 7.1 5.0 6.7 97 0.2 NNW 7 9 4 5 1025.4 1025.9 0.8
29/07:00am 7.0 4.6 6.8 99 0.1 NW 9 11 5 6 1025.4 1025.9 0.8
29/06:30am 6.9 4.4 6.7 99 0.1 WNW 9 11 5 6 1025.4 1025.9 0.8
29/06:17am 6.9 4.0 6.7 99 0.1 WNW 11 13 6 7 1025.4 1025.9 0.8
29/06:00am 6.9 4.4 6.7 99 0.1 WNW 9 11 5 6 1025.2 1025.7 0.6
29/05:30am 7.2 4.4 6.8 97 0.2 WNW 11 11 6 6 1025.1 1025.6 0.6
29/05:00am 7.0 4.1 6.6 97 0.2 W 11 13 6 7 1025.1 1025.6 0.6
29/04:30am 7.5 4.8 7.3 99 0.1 WSW 11 15 6 8 1025.0 1025.5 0.6
29/04:00am 7.4 4.6 7.0 97 0.2 W 11 15 6 8 1024.7 1025.1 0.6
29/03:35am 6.9 3.7 6.7 99 0.1 W 13 15 7 8 1024.8 1025.3 0.6
29/03:30am 7.0 4.2 6.8 99 0.1 W 11 13 6 7 1024.8 1025.3 0.6
29/03:23am 7.1 4.7 6.9 99 0.1 W 9 13 5 7 1024.8 1025.3 0.6
29/03:10am 7.3 4.9 7.1 99 0.1 W 9 11 5 6 1024.8 1025.3 0.6
29/03:00am 7.3 4.5 7.1 99 0.1 WNW 11 15 6 8 1024.8 1025.3 0.6
29/02:52am 6.9 4.0 6.7 99 0.1 W 11 13 6 7 1024.9 1025.4 0.6
29/02:46am 7.0 4.2 6.8 99 0.1 WNW 11 13 6 7 1024.9 1025.4 0.6
29/02:33am 7.1 4.7 7.1 100 0.0 WNW 9 9 5 5 1024.9 1025.4 0.6
29/02:30am 7.4 5.0 7.2 99 0.1 WNW 9 11 5 6 1024.9 1025.4 0.6
29/02:19am 7.7 5.4 7.5 99 0.1 W 9 11 5 6 1025.0 1025.5 0.6
29/02:00am 8.0 5.4 7.8 99 0.1 WNW 11 13 6 7 1025.2 1025.7 0.6
29/01:50am 8.1 5.9 7.7 97 0.2 WNW 9 11 5 6 1025.3 1025.8 0.6
29/01:30am 8.1 5.9 7.7 97 0.2 WNW 9 9 5 5 1025.4 1025.9 0.6
29/01:00am 8.1 5.9 7.7 97 0.2 WNW 9 11 5 6 1025.6 1026.1 0.6
29/12:30am 8.1 5.9 7.7 97 0.2 WNW 9 13 5 7 1025.7 1026.2 0.6
29/12:00am 8.2 6.0 7.8 97 0.2 NW 9 11 5 6 1025.8 1026.3 0.6
 
Date/Time
EST
Temp
°C
App
Temp
°C
Dew
Point
°C
Rel
Hum
%
Delta-T
°C
Wind Press
QNH
hPa
Press
MSL
hPa
Rain since
9am
mm
Dir  Spd
km/h
Gust
km/h
Spd
kts
Gust
kts
28/11:48pm 8.2 6.4 7.8 97 0.2 WNW 7 9 4 5 1025.9 1026.4 0.6
28/11:30pm 8.2 6.4 7.8 97 0.2 WNW 7 11 4 6 1026.0 1026.5 0.6
28/11:08pm 8.2 6.0 7.8 97 0.2 W 9 11 5 6 1026.2 1026.7 0.4
28/11:00pm 8.2 6.0 7.8 97 0.2 WNW 9 11 5 6 1026.2 1026.7 0.4
28/10:44pm 8.2 6.0 7.8 97 0.2 NW 9 11 5 6 1026.3 1026.8 0.4
28/10:30pm 8.1 5.9 7.7 97 0.2 NW 9 11 5 6 1026.3 1026.8 0.4
28/10:22pm 8.1 5.9 7.7 97 0.2 NW 9 11 5 6 1026.3 1026.8 0.2
28/10:00pm 8.1 5.5 7.7 97 0.2 WNW 11 11 6 6 1026.5 1027.0 0.2
28/09:30pm 8.2 5.6 7.6 96 0.3 WNW 11 13 6 7 1026.7 1027.2 0.2
28/09:00pm 8.3 5.6 7.5 95 0.4 W 11 13 6 7 1026.8 1027.3 0.2
28/08:30pm 8.2 5.4 7.1 93 0.5 WNW 11 13 6 7 1026.8 1027.3 0.2
28/08:23pm 8.2 5.4 7.1 93 0.5 WNW 11 15 6 8 1026.8 1027.3 0.2
28/08:22pm 8.2 5.4 7.1 93 0.5 WNW 11 15 6 8 1026.8 1027.3 0.2
28/08:10pm 8.4 5.6 7.1 91 0.6 WNW 11 15 6 8 1026.8 1027.3 0.2
28/08:00pm 8.6 6.1 6.7 88 0.9 WNW 9 11 5 6 1026.8 1027.3 0.2
28/07:30pm 8.5 6.6 6.8 89 0.8 NW 6 9 3 5 1026.8 1027.3 0.2
28/07:00pm 8.2 7.5 7.1 93 0.5 CALM 0 0 0 0 1026.6 1027.1 0.2
28/06:30pm 8.0 6.9 7.1 94 0.4 WNW 2 7 1 4 1026.5 1027.0 0.2
28/06:00pm 8.4 6.4 7.1 91 0.6 WNW 7 7 4 4 1026.2 1026.7 0.2
28/05:30pm 8.6 6.2 7.1 90 0.7 W 9 11 5 6 1026.2 1026.7 0.2
28/05:03pm 8.6 5.8 7.1 90 0.7 W 11 13 6 7 1026.1 1026.6 0.2
28/05:00pm 8.6 5.8 7.1 90 0.7 W 11 15 6 8 1026.1 1026.6 0.2
28/04:48pm 8.7 6.0 7.2 90 0.7 W 11 17 6 9 1026.2 1026.7 0.2
28/04:30pm 9.0 5.9 7.3 89 0.8 NW 13 17 7 9 1026.1 1026.6 0.2
28/04:02pm 9.1 6.4 7.2 88 0.9 WNW 11 13 6 7 1026.1 1026.6 0.2
28/04:00pm 9.1 6.3 7.0 87 1.0 WNW 11 13 6 7 1026.1 1026.6 0.2
28/03:30pm 9.2 7.2 6.9 85 1.1 NW 7 11 4 6 1026.1 1026.6 0.0
28/03:09pm 9.1 5.9 6.8 85 1.1 WNW 13 17 7 9 1026.2 1026.7 0.0
28/03:00pm 9.4 6.4 5.9 79 1.6 WNW 11 15 6 8 1026.1 1026.6 0.0
28/02:30pm 9.8 6.3 5.4 74 2.0 WSW 13 17 7 9 1026.1 1026.6 0.0
28/02:00pm 10.4 7.3 5.4 71 2.3 WSW 11 15 6 8 1026.1 1026.6 0.0
28/01:30pm 10.3 6.8 5.5 72 2.2 WSW 13 17 7 9 1026.3 1026.8 0.0
28/01:00pm 10.2 6.5 4.4 67 2.6 W 13 15 7 8 1026.7 1027.2 0.0
28/12:30pm 10.0 7.6 5.4 73 2.1 WSW 7 13 4 7 1026.9 1027.4 0.0
28/12:00pm 10.1 7.3 5.3 72 2.2 SW 9 13 5 7 1027.3 1027.8 0.0
28/11:30am 9.3 6.2 5.6 78 1.7 WSW 11 17 6 9 1027.6 1028.1 0.0
28/11:07am 9.1 5.2 5.4 77 1.7 W 15 19 8 10 1027.9 1028.4 0.0
28/11:00am 9.2 5.4 5.9 80 1.5 WSW 15 19 8 10 1028.0 1028.5 0.0
28/10:30am 8.7 5.2 5.6 81 1.4 W 13 15 7 8 1028.1 1028.6 0.0
28/10:00am 8.0 4.9 5.6 85 1.1 WNW 11 13 6 7 1027.8 1028.3 0.0
28/09:30am 7.7 4.7 5.9 88 0.8 W 11 15 6 8 1027.7 1028.2 0.0
28/09:00am 6.6 4.3 5.5 93 0.5 W 7 9 4 5 1027.5 1028.0 1.0
28/08:30am 6.0 3.6 5.3 95 0.3 WNW 7 9 4 5 1027.3 1027.8 1.0
28/08:00am 5.6 3.1 4.9 95 0.3 WNW 7 7 4 4 1027.0 1027.5 1.0
28/07:30am 5.4 4.2 4.7 95 0.3 CALM 0 7 0 4 1026.6 1027.1 1.0
28/07:00am 5.1 3.5 4.4 95 0.3 NNE 2 7 1 4 1026.2 1026.7 1.0
28/06:30am 4.9 3.6 4.2 95 0.3 CALM 0 0 0 0 1025.9 1026.4 1.0
28/06:00am 4.5 2.0 4.0 97 0.2 N 6 7 3 4 1025.7 1026.2 1.0
28/05:30am 4.7 3.0 4.0 95 0.3 WNW 2 7 1 4 1025.3 1025.8 1.0
28/05:00am 4.4 3.1 3.9 97 0.2 CALM 0 0 0 0 1025.1 1025.6 1.0
28/04:30am 3.2 1.6 2.5 95 0.3 CALM 0 0 0 0 1024.8 1025.3 1.0
28/04:00am 3.4 0.5 2.7 95 0.3 W 7 7 4 4 1024.6 1025.0 1.0
28/03:30am 4.8 1.7 3.4 91 0.6 W 9 9 5 5 1024.5 1024.9 1.0
28/03:00am 4.1 1.8 2.9 92 0.5 W 4 9 2 5 1024.5 1024.9 1.0
28/02:30am 4.6 3.2 3.4 92 0.5 CALM 0 0 0 0 1024.4 1024.8 1.0
28/02:00am 5.2 2.6 3.3 87 0.8 NNW 6 7 3 4 1024.3 1024.7 1.0
28/01:30am 5.1 1.2 3.2 87 0.8 WSW 13 17 7 9 1024.3 1024.7 1.0
28/01:00am 5.5 1.2 3.4 86 0.9 W 15 19 8 10 1023.9 1024.4 1.0
28/12:30am 6.1 2.5 3.0 80 1.3 W 11 13 6 7 1024.1 1024.5 1.0
28/12:00am 6.9 3.3 3.1 77 1.6 WNW 11 13 6 7 1023.9 1024.4 1.0
 
Date/Time
EST
Temp
°C
App
Temp
°C
Dew
Point
°C
Rel
Hum
%
Delta-T
°C
Wind Press
QNH
hPa
Press
MSL
hPa
Rain since
9am
mm
Dir  Spd
km/h
Gust
km/h
Spd
kts
Gust
kts
27/11:30pm 7.5 3.6 3.5 76 1.7 WSW 13 17 7 9 1024.1 1024.5 1.0
27/11:00pm 7.7 3.5 4.0 77 1.6 WSW 15 19 8 10 1023.8 1024.3 1.0
27/10:30pm 7.6 3.1 4.4 80 1.4 SW 17 22 9 12 1023.5 1024.0 1.0
27/10:00pm 8.5 4.9 5.2 80 1.5 WSW 13 17 7 9 1023.1 1023.6 1.0
27/09:30pm 8.6 5.7 6.7 88 0.9 W 11 17 6 9 1022.9 1023.4 1.0
27/09:00pm 8.5 6.1 7.2 91 0.6 W 9 11 5 6 1022.7 1023.2 1.0
27/08:30pm 8.6 5.5 7.3 91 0.6 W 13 17 7 9 1022.2 1022.7 1.0
27/08:00pm 8.3 5.3 7.5 95 0.4 WNW 13 17 7 9 1022.0 1022.5 1.0
27/07:30pm 8.6 5.6 7.6 93 0.5 WNW 13 15 7 8 1021.8 1022.3 1.0
27/07:26pm 8.8 5.8 7.5 91 0.6 W 13 15 7 8 1021.7 1022.2 1.0
27/07:00pm 9.2 6.3 8.2 93 0.5 WNW 13 15 7 8 1021.4 1021.9 1.0
27/06:35pm 9.2 5.9 8.2 93 0.5 WNW 15 22 8 12 1021.0 1021.5 1.0
27/06:30pm 9.1 5.8 8.1 93 0.5 WNW 15 19 8 10 1020.9 1021.4 1.0
27/06:24pm 9.0 5.4 8.2 95 0.4 WNW 17 19 9 10 1020.8 1021.2 1.0
27/06:19pm 8.9 5.6 7.9 93 0.5 WNW 15 20 8 11 1020.7 1021.1 1.0
27/06:02pm 9.2 5.5 8.0 92 0.6 WNW 17 28 9 15 1020.4 1020.8 1.0
27/06:00pm 9.3 6.0 7.9 91 0.7 WNW 15 26 8 14 1020.4 1020.8 1.0
27/05:30pm 9.3 5.0 7.2 87 1.0 WNW 19 26 10 14 1019.7 1020.1 1.0
27/05:00pm 10.3 5.9 6.5 77 1.8 W 19 28 10 15 1019.4 1019.8 1.0
27/04:30pm 11.4 6.5 6.8 73 2.2 W 22 30 12 16 1018.8 1019.3 1.0
27/04:00pm 10.0 5.9 7.9 87 1.0 WSW 19 24 10 13 1018.2 1018.7 1.0
27/03:30pm 10.1 5.6 8.5 90 0.8 W 22 30 12 16 1017.8 1018.3 0.4
27/03:00pm 10.8 6.6 7.5 80 1.6 W 19 28 10 15 1017.2 1017.7 0.4
27/02:30pm 11.4 7.0 7.3 76 2.0 W 20 28 11 15 1016.9 1017.4 0.4
27/02:00pm 10.4 6.8 8.4 87 1.0 W 17 20 9 11 1016.7 1017.1 0.4
27/01:54pm 10.4 7.1 8.2 86 1.1 W 15 20 8 11 1016.5 1016.9 0.4
27/01:30pm 10.4 5.9 6.8 78 1.7 WSW 20 28 11 15 1016.4 1016.8 0.4
27/01:00pm 10.4 6.0 6.6 77 1.8 WSW 19 26 10 14 1016.3 1016.7 0.4
27/12:30pm 10.2 4.3 5.7 73 2.1 WSW 26 33 14 18 1016.4 1016.8 0.4
27/12:24pm 10.3 4.3 5.3 71 2.3 WSW 26 35 14 19 1016.4 1016.8 0.4
27/12:00pm 10.1 5.2 5.3 72 2.2 WSW 20 30 11 16 1016.5 1016.9 0.4
27/11:30am 9.6 4.4 5.7 76 1.8 WSW 22 33 12 18 1016.4 1016.8 0.4
27/11:00am 9.1 4.1 6.3 83 1.3 WSW 22 30 12 16 1015.9 1016.3 0.4
27/10:41am 9.6 4.3 6.6 81 1.4 W 24 35 13 19 1015.6 1016.0 0.4
27/10:30am 9.0 4.1 6.7 85 1.1 WSW 22 32 12 17 1015.5 1015.9 0.4
27/10:15am 8.9 4.5 7.4 90 0.7 WSW 20 30 11 16 1015.2 1015.6 0.4
27/10:00am 8.5 3.7 7.5 93 0.5 WSW 22 35 12 19 1015.0 1015.4 0.4
27/09:30am 8.7 4.3 7.2 90 0.7 W 20 28 11 15 1014.4 1014.8 0.0
27/09:00am 8.3 2.6 6.8 90 0.7 W 26 33 14 18 1013.8 1014.3 5.4
27/08:30am 8.3 2.2 6.6 89 0.8 W 28 39 15 21 1013.3 1013.8 5.4
27/08:00am 8.0 2.3 6.9 93 0.5 WNW 26 33 14 18 1012.8 1013.2 5.4
27/07:56am 8.0 2.3 6.9 93 0.5 WNW 26 33 14 18 1012.8 1013.2 5.4
27/07:30am 8.0 2.0 6.9 93 0.5 WNW 28 37 15 20 1012.4 1012.8 5.4
27/07:00am 7.9 2.3 7.1 95 0.4 WNW 26 33 14 18 1011.7 1012.1 5.2
27/06:54am 7.9 1.9 7.1 95 0.4 WNW 28 39 15 21 1011.7 1012.1 5.2
27/06:49am 7.9 1.5 7.1 95 0.4 WNW 30 39 16 21 1011.6 1012.0 5.2
27/06:39am 8.2 1.7 6.7 90 0.7 WNW 30 39 16 21 1011.5 1011.9 5.2
27/06:30am 8.5 1.6 6.4 87 1.0 WNW 32 41 17 22 1011.3 1011.7 5.0
27/06:28am 8.5 1.6 6.4 87 1.0 WNW 32 41 17 22 1011.3 1011.7 5.0
27/06:22am 8.5 2.4 6.4 87 1.0 WNW 28 39 15 21 1011.2 1011.6 5.0
27/06:15am 8.4 2.2 6.2 86 1.0 WNW 28 39 15 21 1011.0 1011.4 5.0
27/06:00am 8.2 1.8 6.9 91 0.6 WNW 30 39 16 21 1010.8 1011.2 5.0
27/05:45am 8.2 3.3 7.1 93 0.5 WNW 22 32 12 17 1010.7 1011.1 5.0
27/05:43am 8.3 3.4 7.0 91 0.6 WNW 22 32 12 17 1010.7 1011.1 5.0
27/05:40am 8.3 3.4 7.0 91 0.6 WNW 22 32 12 17 1010.7 1011.1 5.0
27/05:30am 8.3 3.4 7.0 91 0.6 NW 22 35 12 19 1010.7 1011.1 5.0
27/05:28am 8.3 3.4 7.0 91 0.6 NW 22 30 12 16 1010.6 1011.0 5.0
27/05:20am 8.5 3.6 6.8 89 0.8 NW 22 28 12 15 1010.5 1010.9 5.0
27/05:02am 8.6 3.7 6.7 88 0.9 NW 22 33 12 18 1010.2 1010.6 5.0
27/05:00am 8.7 4.1 6.6 87 1.0 NW 20 32 11 17 1010.2 1010.6 5.0
27/04:30am 8.5 3.2 6.8 89 0.8 NW 24 32 13 17 1009.9 1010.3 5.0
27/04:00am 8.7 3.4 6.6 87 1.0 NW 24 35 13 19 1009.7 1010.1 4.6
27/03:55am 8.5 3.6 7.0 90 0.7 NW 22 35 12 19 1009.7 1010.1 4.6
27/03:36am 8.4 4.5 7.1 91 0.6 NNW 17 28 9 15 1009.9 1010.3 4.4
27/03:30am 8.3 4.8 7.0 91 0.6 NNW 15 20 8 11 1009.8 1010.2 4.4
27/03:00am 8.2 4.2 6.5 89 0.8 NNW 17 26 9 14 1010.2 1010.6 4.2
27/02:44am 8.1 5.5 6.2 88 0.9 NNW 9 17 5 9 1010.4 1010.8 3.6
27/02:30am 7.7 5.2 6.4 91 0.6 NNW 9 13 5 7 1010.7 1011.1 3.0
27/02:28am 7.8 5.2 6.3 90 0.7 NNW 9 13 5 7 1010.8 1011.2 3.0
27/02:00am 7.8 4.1 6.5 91 0.6 NNE 15 19 8 10 1010.8 1011.2 2.4
27/01:30am 7.9 4.6 6.2 89 0.8 N 13 19 7 10 1011.6 1012.0 2.2
27/01:00am 8.0 4.7 6.5 90 0.7 NNE 13 17 7 9 1012.4 1012.8 1.6
27/12:30am 7.4 4.8 6.3 93 0.5 NE 9 11 5 6 1012.5 1012.9 1.4
27/12:00am 7.7 4.8 6.6 93 0.5 NNE 11 15 6 8 1013.0 1013.5 1.4
 
Date/Time
EST
Temp
°C
App
Temp
°C
Dew
Point
°C
Rel
Hum
%
Delta-T
°C
Wind Press
QNH
hPa
Press
MSL
hPa
Rain since
9am
mm
Dir  Spd
km/h
Gust
km/h
Spd
kts
Gust
kts
26/11:57pm 7.7 4.8 6.4 91 0.6 NNE 11 15 6 8 1013.1 1013.6 1.4
26/11:42pm 7.8 4.9 6.5 91 0.6 NNE 11 15 6 8 1013.2 1013.7 1.4
26/11:30pm 7.6 5.1 6.7 94 0.4 N 9 13 5 7 1013.2 1013.7 1.0
26/11:25pm 7.8 5.9 6.5 91 0.6 NNW 6 11 3 6 1013.4 1013.9 1.0
26/11:07pm 8.0 5.1 6.3 89 0.8 N 11 13 6 7 1013.7 1014.2 0.8
26/11:00pm 8.1 5.1 5.9 86 1.0 N 11 13 6 7 1013.6 1014.1 0.4
26/10:30pm 8.3 5.5 5.2 81 1.4 NNW 9 11 5 6 1013.9 1014.4 0.2
26/10:00pm 8.2 5.0 5.1 81 1.4 N 11 17 6 9 1013.7 1014.2 0.2
26/09:30pm 8.1 5.3 5.0 81 1.4 NNE 9 11 5 6 1014.0 1014.5 0.2
26/09:00pm 8.3 5.7 4.2 75 1.8 N 7 13 4 7 1014.3 1014.7 0.2
26/08:30pm 8.5 5.1 4.0 73 2.0 N 11 13 6 7 1014.6 1015.0 0.2
26/08:00pm 8.5 5.1 4.2 74 1.9 N 11 15 6 8 1014.6 1015.0 0.2
26/07:30pm 8.6 5.6 4.3 74 1.9 N 9 11 5 6 1014.8 1015.2 0.2
26/07:00pm 8.5 5.9 4.2 74 1.9 NNW 7 9 4 5 1014.6 1015.0 0.2
26/06:30pm 8.2 4.9 4.4 77 1.7 NW 11 13 6 7 1014.6 1015.0 0.2
26/06:00pm 8.7 5.8 4.7 76 1.8 NW 9 13 5 7 1014.5 1014.9 0.2
26/05:30pm 8.9 4.4 4.2 72 2.1 NW 17 24 9 13 1014.4 1014.8 0.2
26/05:00pm 10.0 6.4 2.9 61 3.1 NW 11 15 6 8 1014.3 1014.7 0.2
26/04:30pm 10.1 5.6 2.4 59 3.3 NW 15 20 8 11 1014.3 1014.7 0.2
26/04:00pm 10.3 5.8 2.4 58 3.4 WNW 15 20 8 11 1014.4 1014.8 0.2
26/03:30pm 10.4 5.5 2.0 56 3.6 NW 17 24 9 13 1014.7 1015.1 0.2
26/03:06pm 10.6 5.2 1.4 53 3.9 WNW 19 24 10 13 1014.8 1015.2 0.2
26/03:00pm 10.7 5.7 1.2 52 4.0 NW 17 24 9 13 1014.8 1015.2 0.2
26/02:30pm 10.8 5.9 1.9 54 3.8 NW 17 22 9 12 1015.2 1015.6 0.2
26/02:00pm 11.7 6.1 1.4 49 4.4 NW 20 30 11 16 1015.3 1015.7 0.2
26/01:30pm 11.1 5.6 0.8 49 4.3 WNW 19 28 10 15 1015.4 1015.8 0.0
26/01:00pm 10.8 4.4 1.0 51 4.1 WNW 24 32 13 17 1016.0 1016.4 0.0
26/12:30pm 10.4 5.2 2.5 58 3.4 NW 19 22 10 12 1016.8 1017.2 0.0
26/12:00pm 10.4 5.7 3.4 62 3.1 W 17 22 9 12 1017.1 1017.6 0.0
26/11:30am 10.7 6.5 4.0 63 3.0 WNW 15 22 8 12 1017.5 1018.0 0.0
26/11:00am 8.9 4.3 3.6 69 2.3 NW 17 24 9 13 1017.9 1018.4 0.0
26/10:30am 10.3 6.1 5.8 73 2.1 NW 17 22 9 12 1018.0 1018.5 0.0
26/10:00am 8.4 4.1 5.1 80 1.5 WNW 17 24 9 13 1018.2 1018.7 0.0
26/09:30am 7.6 3.7 5.4 86 1.0 NW 15 19 8 10 1018.1 1018.6 0.0
26/09:00am 7.1 3.6 5.3 88 0.8 WNW 13 17 7 9 1018.0 1018.5 1.6
26/08:30am 6.7 3.8 4.9 88 0.8 WNW 9 11 5 6 1018.1 1018.6 1.6

Other Formats:

Comma delimited format used in spreadsheet applications
http://www.bom.gov.au/fwo/IDN60801/IDN60801.94910.axf

JavaScript Object Notation format (JSON) in row-major order
http://www.bom.gov.au/fwo/IDN60801/IDN60801.94910.json